sensor_id;sensor_type;location;lat;lon;timestamp;temperature;humidity
24802;DHT22;12898;50.520;12.152;2023-04-24T00:00:01;10.20;99.90
24802;DHT22;12898;50.520;12.152;2023-04-24T00:02:31;10.20;99.90
24802;DHT22;12898;50.520;12.152;2023-04-24T00:04:58;10.20;99.90
24802;DHT22;12898;50.520;12.152;2023-04-24T00:07:28;10.20;99.90
24802;DHT22;12898;50.520;12.152;2023-04-24T00:09:55;10.20;99.90
24802;DHT22;12898;50.520;12.152;2023-04-24T00:12:21;10.20;99.90
24802;DHT22;12898;50.520;12.152;2023-04-24T00:14:46;10.20;99.90
24802;DHT22;12898;50.520;12.152;2023-04-24T00:17:12;10.20;99.90
24802;DHT22;12898;50.520;12.152;2023-04-24T00:19:38;10.30;99.90
24802;DHT22;12898;50.520;12.152;2023-04-24T00:22:04;10.30;99.90
24802;DHT22;12898;50.520;12.152;2023-04-24T00:24:30;10.20;99.90
24802;DHT22;12898;50.520;12.152;2023-04-24T00:26:56;10.20;99.90
24802;DHT22;12898;50.520;12.152;2023-04-24T00:29:22;10.20;99.90
24802;DHT22;12898;50.520;12.152;2023-04-24T00:31:48;10.20;99.90
24802;DHT22;12898;50.520;12.152;2023-04-24T00:34:14;10.30;99.90
24802;DHT22;12898;50.520;12.152;2023-04-24T00:36:39;10.20;99.90
24802;DHT22;12898;50.520;12.152;2023-04-24T00:39:06;10.30;99.90
24802;DHT22;12898;50.520;12.152;2023-04-24T00:41:34;10.20;99.90
24802;DHT22;12898;50.520;12.152;2023-04-24T00:44:00;10.20;99.90
24802;DHT22;12898;50.520;12.152;2023-04-24T00:46:26;10.20;99.90
24802;DHT22;12898;50.520;12.152;2023-04-24T00:48:52;10.30;99.90
24802;DHT22;12898;50.520;12.152;2023-04-24T00:51:18;10.30;99.90
24802;DHT22;12898;50.520;12.152;2023-04-24T00:53:44;10.30;99.90
24802;DHT22;12898;50.520;12.152;2023-04-24T00:56:10;10.30;99.90
24802;DHT22;12898;50.520;12.152;2023-04-24T00:58:36;10.40;99.90
24802;DHT22;12898;50.520;12.152;2023-04-24T01:01:02;10.40;99.90
24802;DHT22;12898;50.520;12.152;2023-04-24T01:03:29;10.30;99.90
24802;DHT22;12898;50.520;12.152;2023-04-24T01:05:57;10.40;99.90
24802;DHT22;12898;50.520;12.152;2023-04-24T01:08:24;10.40;99.90
24802;DHT22;12898;50.520;12.152;2023-04-24T01:10:52;10.30;99.90
24802;DHT22;12898;50.520;12.152;2023-04-24T01:13:19;10.40;99.90
24802;DHT22;12898;50.520;12.152;2023-04-24T01:15:46;10.30;99.90
24802;DHT22;12898;50.520;12.152;2023-04-24T01:18:13;10.30;99.90
24802;DHT22;12898;50.520;12.152;2023-04-24T01:20:40;10.40;99.90
24802;DHT22;12898;50.520;12.152;2023-04-24T01:23:08;10.40;99.90
24802;DHT22;12898;50.520;12.152;2023-04-24T01:25:34;10.30;99.90
24802;DHT22;12898;50.520;12.152;2023-04-24T01:28:00;10.30;99.90
24802;DHT22;12898;50.520;12.152;2023-04-24T01:30:27;10.30;99.90
24802;DHT22;12898;50.520;12.152;2023-04-24T01:32:53;10.30;99.90
24802;DHT22;12898;50.520;12.152;2023-04-24T01:35:19;10.20;99.90
24802;DHT22;12898;50.520;12.152;2023-04-24T01:37:45;10.20;99.90
24802;DHT22;12898;50.520;12.152;2023-04-24T01:40:11;10.20;99.90
24802;DHT22;12898;50.520;12.152;2023-04-24T01:42:37;10.20;99.90
24802;DHT22;12898;50.520;12.152;2023-04-24T01:45:04;10.20;99.90
24802;DHT22;12898;50.520;12.152;2023-04-24T01:47:31;10.20;99.90
24802;DHT22;12898;50.520;12.152;2023-04-24T01:49:57;10.20;99.90
24802;DHT22;12898;50.520;12.152;2023-04-24T01:52:23;10.20;99.90
24802;DHT22;12898;50.520;12.152;2023-04-24T01:54:49;10.20;99.90
24802;DHT22;12898;50.520;12.152;2023-04-24T01:57:16;10.20;99.90
24802;DHT22;12898;50.520;12.152;2023-04-24T01:59:42;10.20;99.90
24802;DHT22;12898;50.520;12.152;2023-04-24T02:02:08;10.30;99.90
24802;DHT22;12898;50.520;12.152;2023-04-24T02:04:34;10.30;99.90
24802;DHT22;12898;50.520;12.152;2023-04-24T02:06:59;10.20;99.90
24802;DHT22;12898;50.520;12.152;2023-04-24T02:09:25;10.20;99.90
24802;DHT22;12898;50.520;12.152;2023-04-24T02:11:51;10.20;99.90
24802;DHT22;12898;50.520;12.152;2023-04-24T02:14:16;10.20;99.90
24802;DHT22;12898;50.520;12.152;2023-04-24T02:16:42;10.20;99.90
24802;DHT22;12898;50.520;12.152;2023-04-24T02:19:09;10.10;99.90
24802;DHT22;12898;50.520;12.152;2023-04-24T02:21:35;10.00;99.90
24802;DHT22;12898;50.520;12.152;2023-04-24T02:24:01;10.00;99.90
24802;DHT22;12898;50.520;12.152;2023-04-24T02:26:27;9.90;99.90
24802;DHT22;12898;50.520;12.152;2023-04-24T02:28:52;9.90;99.90
24802;DHT22;12898;50.520;12.152;2023-04-24T02:31:18;9.80;99.90
24802;DHT22;12898;50.520;12.152;2023-04-24T02:33:44;9.80;99.90
24802;DHT22;12898;50.520;12.152;2023-04-24T02:36:09;9.80;99.90
24802;DHT22;12898;50.520;12.152;2023-04-24T02:38:35;9.80;99.90
24802;DHT22;12898;50.520;12.152;2023-04-24T02:41:01;9.80;99.90
24802;DHT22;12898;50.520;12.152;2023-04-24T02:43:28;9.70;99.90
24802;DHT22;12898;50.520;12.152;2023-04-24T02:45:53;9.70;99.90
24802;DHT22;12898;50.520;12.152;2023-04-24T02:48:19;9.70;99.90
24802;DHT22;12898;50.520;12.152;2023-04-24T02:50:46;9.70;99.90
24802;DHT22;12898;50.520;12.152;2023-04-24T02:53:12;9.70;99.90
24802;DHT22;12898;50.520;12.152;2023-04-24T02:55:38;9.60;99.90
24802;DHT22;12898;50.520;12.152;2023-04-24T02:58:04;9.60;99.90
24802;DHT22;12898;50.520;12.152;2023-04-24T03:00:29;9.60;99.90
24802;DHT22;12898;50.520;12.152;2023-04-24T03:02:55;9.60;99.90
24802;DHT22;12898;50.520;12.152;2023-04-24T03:05:21;9.60;99.90
24802;DHT22;12898;50.520;12.152;2023-04-24T03:07:47;9.60;99.90
24802;DHT22;12898;50.520;12.152;2023-04-24T03:10:13;9.60;99.90
24802;DHT22;12898;50.520;12.152;2023-04-24T03:12:39;9.60;99.90
24802;DHT22;12898;50.520;12.152;2023-04-24T03:15:05;9.60;99.90
24802;DHT22;12898;50.520;12.152;2023-04-24T03:17:31;9.60;99.90
24802;DHT22;12898;50.520;12.152;2023-04-24T03:19:57;9.60;99.90
24802;DHT22;12898;50.520;12.152;2023-04-24T03:22:22;9.70;99.90
24802;DHT22;12898;50.520;12.152;2023-04-24T03:24:48;9.60;99.90
24802;DHT22;12898;50.520;12.152;2023-04-24T03:27:14;9.60;99.90
24802;DHT22;12898;50.520;12.152;2023-04-24T03:29:43;9.60;99.90
24802;DHT22;12898;50.520;12.152;2023-04-24T03:32:08;9.50;99.90
24802;DHT22;12898;50.520;12.152;2023-04-24T03:34:34;9.50;99.90
24802;DHT22;12898;50.520;12.152;2023-04-24T03:37:00;9.50;99.90
24802;DHT22;12898;50.520;12.152;2023-04-24T03:39:25;9.50;99.90
24802;DHT22;12898;50.520;12.152;2023-04-24T03:41:52;9.50;99.90
24802;DHT22;12898;50.520;12.152;2023-04-24T03:44:18;9.50;99.90
24802;DHT22;12898;50.520;12.152;2023-04-24T03:46:43;9.50;99.90
24802;DHT22;12898;50.520;12.152;2023-04-24T03:49:09;9.50;99.90
24802;DHT22;12898;50.520;12.152;2023-04-24T03:51:35;9.50;99.90
24802;DHT22;12898;50.520;12.152;2023-04-24T03:54:00;9.50;99.90
24802;DHT22;12898;50.520;12.152;2023-04-24T03:56:26;9.50;99.90
24802;DHT22;12898;50.520;12.152;2023-04-24T03:58:52;9.50;99.90
24802;DHT22;12898;50.520;12.152;2023-04-24T04:01:17;9.50;99.90
24802;DHT22;12898;50.520;12.152;2023-04-24T04:03:44;9.50;99.90
24802;DHT22;12898;50.520;12.152;2023-04-24T04:06:10;9.50;99.90
24802;DHT22;12898;50.520;12.152;2023-04-24T04:08:36;9.50;99.90
24802;DHT22;12898;50.520;12.152;2023-04-24T04:11:02;9.50;99.90
24802;DHT22;12898;50.520;12.152;2023-04-24T04:13:28;9.50;99.90
24802;DHT22;12898;50.520;12.152;2023-04-24T04:15:53;9.50;99.90
24802;DHT22;12898;50.520;12.152;2023-04-24T04:18:19;9.50;99.90
24802;DHT22;12898;50.520;12.152;2023-04-24T04:20:45;9.50;99.90
24802;DHT22;12898;50.520;12.152;2023-04-24T04:23:11;9.60;99.90
24802;DHT22;12898;50.520;12.152;2023-04-24T04:25:36;9.60;99.90
24802;DHT22;12898;50.520;12.152;2023-04-24T04:28:02;9.70;99.90
24802;DHT22;12898;50.520;12.152;2023-04-24T04:30:28;9.60;99.90
24802;DHT22;12898;50.520;12.152;2023-04-24T04:32:57;9.60;99.90
24802;DHT22;12898;50.520;12.152;2023-04-24T04:35:24;9.60;99.90
24802;DHT22;12898;50.520;12.152;2023-04-24T04:37:50;9.60;99.90
24802;DHT22;12898;50.520;12.152;2023-04-24T04:40:16;9.60;99.90
24802;DHT22;12898;50.520;12.152;2023-04-24T04:42:42;9.60;99.90
24802;DHT22;12898;50.520;12.152;2023-04-24T04:45:11;9.60;99.90
24802;DHT22;12898;50.520;12.152;2023-04-24T04:47:37;9.70;99.90
24802;DHT22;12898;50.520;12.152;2023-04-24T04:50:03;9.70;99.90
24802;DHT22;12898;50.520;12.152;2023-04-24T04:52:30;9.70;99.90
24802;DHT22;12898;50.520;12.152;2023-04-24T04:54:56;9.70;99.90
24802;DHT22;12898;50.520;12.152;2023-04-24T04:57:22;9.70;99.90
24802;DHT22;12898;50.520;12.152;2023-04-24T04:59:48;9.70;99.90
24802;DHT22;12898;50.520;12.152;2023-04-24T05:02:14;9.70;99.90
24802;DHT22;12898;50.520;12.152;2023-04-24T05:04:39;9.70;99.90
24802;DHT22;12898;50.520;12.152;2023-04-24T05:07:05;9.80;99.90
24802;DHT22;12898;50.520;12.152;2023-04-24T05:09:31;9.70;99.90
24802;DHT22;12898;50.520;12.152;2023-04-24T05:11:57;9.70;99.90
24802;DHT22;12898;50.520;12.152;2023-04-24T05:14:22;9.80;99.90
24802;DHT22;12898;50.520;12.152;2023-04-24T05:16:48;9.90;99.90
24802;DHT22;12898;50.520;12.152;2023-04-24T05:19:14;9.90;99.90
24802;DHT22;12898;50.520;12.152;2023-04-24T05:21:40;9.90;99.90
24802;DHT22;12898;50.520;12.152;2023-04-24T05:24:06;10.00;99.90
24802;DHT22;12898;50.520;12.152;2023-04-24T05:26:32;10.00;99.90
24802;DHT22;12898;50.520;12.152;2023-04-24T05:28:58;10.00;99.90
24802;DHT22;12898;50.520;12.152;2023-04-24T05:31:24;10.10;99.90
24802;DHT22;12898;50.520;12.152;2023-04-24T05:33:50;10.10;99.90
24802;DHT22;12898;50.520;12.152;2023-04-24T05:36:16;10.10;99.90
24802;DHT22;12898;50.520;12.152;2023-04-24T05:38:42;10.10;99.90
24802;DHT22;12898;50.520;12.152;2023-04-24T05:41:07;10.20;99.90
24802;DHT22;12898;50.520;12.152;2023-04-24T05:43:33;10.20;99.90
24802;DHT22;12898;50.520;12.152;2023-04-24T05:45:59;10.20;99.90
24802;DHT22;12898;50.520;12.152;2023-04-24T05:48:24;10.20;99.90
24802;DHT22;12898;50.520;12.152;2023-04-24T05:50:50;10.30;99.90
24802;DHT22;12898;50.520;12.152;2023-04-24T05:53:17;10.30;99.90
24802;DHT22;12898;50.520;12.152;2023-04-24T05:55:44;10.30;99.90
24802;DHT22;12898;50.520;12.152;2023-04-24T05:58:10;10.30;99.90
24802;DHT22;12898;50.520;12.152;2023-04-24T06:00:36;10.40;99.90
24802;DHT22;12898;50.520;12.152;2023-04-24T06:03:03;10.40;99.90
24802;DHT22;12898;50.520;12.152;2023-04-24T06:05:29;10.50;99.90
24802;DHT22;12898;50.520;12.152;2023-04-24T06:07:55;10.50;99.90
24802;DHT22;12898;50.520;12.152;2023-04-24T06:10:21;10.60;99.90
24802;DHT22;12898;50.520;12.152;2023-04-24T06:12:46;10.70;99.90
24802;DHT22;12898;50.520;12.152;2023-04-24T06:15:12;10.80;99.90
24802;DHT22;12898;50.520;12.152;2023-04-24T06:17:38;10.80;99.90
24802;DHT22;12898;50.520;12.152;2023-04-24T06:20:04;10.90;99.90
24802;DHT22;12898;50.520;12.152;2023-04-24T06:22:31;10.90;99.90
24802;DHT22;12898;50.520;12.152;2023-04-24T06:24:59;11.00;99.90
24802;DHT22;12898;50.520;12.152;2023-04-24T06:27:25;11.10;99.90
24802;DHT22;12898;50.520;12.152;2023-04-24T06:29:50;11.20;99.90
24802;DHT22;12898;50.520;12.152;2023-04-24T06:32:23;11.40;99.90
24802;DHT22;12898;50.520;12.152;2023-04-24T06:34:51;11.40;99.90
24802;DHT22;12898;50.520;12.152;2023-04-24T06:37:18;11.50;99.90
24802;DHT22;12898;50.520;12.152;2023-04-24T06:39:45;11.50;99.90
24802;DHT22;12898;50.520;12.152;2023-04-24T06:42:11;11.60;99.90
24802;DHT22;12898;50.520;12.152;2023-04-24T06:44:37;11.60;99.90
24802;DHT22;12898;50.520;12.152;2023-04-24T06:47:07;11.60;99.90
24802;DHT22;12898;50.520;12.152;2023-04-24T06:49:37;11.70;99.90
24802;DHT22;12898;50.520;12.152;2023-04-24T06:52:03;11.70;99.90
24802;DHT22;12898;50.520;12.152;2023-04-24T06:54:30;11.80;99.90
24802;DHT22;12898;50.520;12.152;2023-04-24T06:56:56;11.80;99.90
24802;DHT22;12898;50.520;12.152;2023-04-24T06:59:23;11.80;99.90
24802;DHT22;12898;50.520;12.152;2023-04-24T07:01:50;11.90;99.90
24802;DHT22;12898;50.520;12.152;2023-04-24T07:04:16;12.00;99.90
24802;DHT22;12898;50.520;12.152;2023-04-24T07:06:43;11.90;99.90
24802;DHT22;12898;50.520;12.152;2023-04-24T07:09:11;12.10;99.90
24802;DHT22;12898;50.520;12.152;2023-04-24T07:11:36;12.20;99.90
24802;DHT22;12898;50.520;12.152;2023-04-24T07:14:04;12.30;99.90
24802;DHT22;12898;50.520;12.152;2023-04-24T07:16:30;12.40;99.90
24802;DHT22;12898;50.520;12.152;2023-04-24T07:18:55;12.50;99.90
24802;DHT22;12898;50.520;12.152;2023-04-24T07:21:21;12.60;99.90
24802;DHT22;12898;50.520;12.152;2023-04-24T07:23:47;12.60;99.90
24802;DHT22;12898;50.520;12.152;2023-04-24T07:26:12;12.70;99.90
24802;DHT22;12898;50.520;12.152;2023-04-24T07:28:40;12.80;99.90
24802;DHT22;12898;50.520;12.152;2023-04-24T07:31:10;13.00;99.90
24802;DHT22;12898;50.520;12.152;2023-04-24T07:33:36;13.10;99.90
24802;DHT22;12898;50.520;12.152;2023-04-24T07:36:02;13.20;99.90
24802;DHT22;12898;50.520;12.152;2023-04-24T07:38:29;13.10;99.90
24802;DHT22;12898;50.520;12.152;2023-04-24T07:40:55;13.00;99.90
24802;DHT22;12898;50.520;12.152;2023-04-24T07:43:21;13.10;99.90
24802;DHT22;12898;50.520;12.152;2023-04-24T07:45:51;13.20;99.90
24802;DHT22;12898;50.520;12.152;2023-04-24T07:48:17;13.20;99.90
24802;DHT22;12898;50.520;12.152;2023-04-24T07:50:44;13.20;99.90
24802;DHT22;12898;50.520;12.152;2023-04-24T07:53:10;13.20;99.90
24802;DHT22;12898;50.520;12.152;2023-04-24T07:55:36;13.10;99.90
24802;DHT22;12898;50.520;12.152;2023-04-24T07:58:04;13.00;99.90
24802;DHT22;12898;50.520;12.152;2023-04-24T08:00:29;13.00;99.90
24802;DHT22;12898;50.520;12.152;2023-04-24T08:02:55;12.80;99.90
24802;DHT22;12898;50.520;12.152;2023-04-24T08:05:21;12.70;99.90
24802;DHT22;12898;50.520;12.152;2023-04-24T08:07:46;12.50;99.90
24802;DHT22;12898;50.520;12.152;2023-04-24T08:10:14;12.50;99.90
24802;DHT22;12898;50.520;12.152;2023-04-24T08:12:40;12.50;99.90
24802;DHT22;12898;50.520;12.152;2023-04-24T08:15:07;12.50;99.90
24802;DHT22;12898;50.520;12.152;2023-04-24T08:17:34;12.40;99.90
24802;DHT22;12898;50.520;12.152;2023-04-24T08:20:01;12.40;99.90
24802;DHT22;12898;50.520;12.152;2023-04-24T08:22:28;12.30;99.90
24802;DHT22;12898;50.520;12.152;2023-04-24T08:24:54;12.30;99.90
24802;DHT22;12898;50.520;12.152;2023-04-24T08:27:20;12.30;99.90
24802;DHT22;12898;50.520;12.152;2023-04-24T08:29:45;12.30;99.90
24802;DHT22;12898;50.520;12.152;2023-04-24T08:32:11;12.50;99.90
24802;DHT22;12898;50.520;12.152;2023-04-24T08:34:37;12.70;99.90
24802;DHT22;12898;50.520;12.152;2023-04-24T08:37:03;12.90;99.90
24802;DHT22;12898;50.520;12.152;2023-04-24T08:39:28;13.10;99.90
24802;DHT22;12898;50.520;12.152;2023-04-24T08:41:55;13.30;99.90
24802;DHT22;12898;50.520;12.152;2023-04-24T08:44:21;13.30;99.90
24802;DHT22;12898;50.520;12.152;2023-04-24T08:46:50;13.20;99.90
24802;DHT22;12898;50.520;12.152;2023-04-24T08:49:17;13.20;99.90
24802;DHT22;12898;50.520;12.152;2023-04-24T08:51:44;13.30;99.90
24802;DHT22;12898;50.520;12.152;2023-04-24T08:54:11;13.40;99.90
24802;DHT22;12898;50.520;12.152;2023-04-24T08:56:38;13.30;99.90
24802;DHT22;12898;50.520;12.152;2023-04-24T08:59:06;13.20;99.90
24802;DHT22;12898;50.520;12.152;2023-04-24T09:01:32;13.50;99.90
24802;DHT22;12898;50.520;12.152;2023-04-24T09:04:04;13.80;99.90
24802;DHT22;12898;50.520;12.152;2023-04-24T09:06:30;14.00;99.90
24802;DHT22;12898;50.520;12.152;2023-04-24T09:09:02;14.10;99.90
24802;DHT22;12898;50.520;12.152;2023-04-24T09:11:33;14.20;98.70
24802;DHT22;12898;50.520;12.152;2023-04-24T09:14:00;14.10;95.70
24802;DHT22;12898;50.520;12.152;2023-04-24T09:16:26;14.00;97.10
24802;DHT22;12898;50.520;12.152;2023-04-24T09:18:52;13.90;99.90
24802;DHT22;12898;50.520;12.152;2023-04-24T09:21:21;14.20;99.30
24802;DHT22;12898;50.520;12.152;2023-04-24T09:23:58;14.80;98.30
24802;DHT22;12898;50.520;12.152;2023-04-24T09:26:25;15.20;97.40
24802;DHT22;12898;50.520;12.152;2023-04-24T09:28:53;15.40;91.80
24802;DHT22;12898;50.520;12.152;2023-04-24T09:31:19;15.40;93.40
24802;DHT22;12898;50.520;12.152;2023-04-24T09:33:55;15.60;94.40
24802;DHT22;12898;50.520;12.152;2023-04-24T09:36:32;15.50;91.70
24802;DHT22;12898;50.520;12.152;2023-04-24T09:39:00;15.50;92.00
24802;DHT22;12898;50.520;12.152;2023-04-24T09:41:27;15.40;89.60
24802;DHT22;12898;50.520;12.152;2023-04-24T09:43:54;15.20;90.40
24802;DHT22;12898;50.520;12.152;2023-04-24T09:46:28;15.30;92.10
24802;DHT22;12898;50.520;12.152;2023-04-24T09:48:54;15.40;91.10
24802;DHT22;12898;50.520;12.152;2023-04-24T09:51:33;15.50;91.00
24802;DHT22;12898;50.520;12.152;2023-04-24T09:54:04;15.50;89.20
24802;DHT22;12898;50.520;12.152;2023-04-24T09:56:34;15.60;87.40
24802;DHT22;12898;50.520;12.152;2023-04-24T09:59:07;15.50;83.40
24802;DHT22;12898;50.520;12.152;2023-04-24T10:01:33;15.40;86.50
24802;DHT22;12898;50.520;12.152;2023-04-24T10:03:59;15.50;85.20
24802;DHT22;12898;50.520;12.152;2023-04-24T10:06:33;15.70;88.70
24802;DHT22;12898;50.520;12.152;2023-04-24T10:09:00;15.50;84.00
24802;DHT22;12898;50.520;12.152;2023-04-24T10:11:27;15.30;86.50
24802;DHT22;12898;50.520;12.152;2023-04-24T10:13:53;14.70;85.00
24802;DHT22;12898;50.520;12.152;2023-04-24T10:16:21;14.30;83.10
24802;DHT22;12898;50.520;12.152;2023-04-24T10:18:48;14.00;89.60
24802;DHT22;12898;50.520;12.152;2023-04-24T10:21:15;13.90;91.90
24802;DHT22;12898;50.520;12.152;2023-04-24T10:23:42;13.90;90.80
24802;DHT22;12898;50.520;12.152;2023-04-24T10:26:09;14.00;93.60
24802;DHT22;12898;50.520;12.152;2023-04-24T10:28:36;14.30;91.40
24802;DHT22;12898;50.520;12.152;2023-04-24T10:31:02;14.20;83.70
24802;DHT22;12898;50.520;12.152;2023-04-24T10:33:29;14.30;89.40
24802;DHT22;12898;50.520;12.152;2023-04-24T10:35:56;14.70;86.80
24802;DHT22;12898;50.520;12.152;2023-04-24T10:38:25;15.00;83.10
24802;DHT22;12898;50.520;12.152;2023-04-24T10:40:57;15.20;77.80
24802;DHT22;12898;50.520;12.152;2023-04-24T10:43:33;15.10;77.20
24802;DHT22;12898;50.520;12.152;2023-04-24T10:46:04;15.10;76.10
24802;DHT22;12898;50.520;12.152;2023-04-24T10:48:31;15.10;77.20
24802;DHT22;12898;50.520;12.152;2023-04-24T10:50:58;14.90;74.00
24802;DHT22;12898;50.520;12.152;2023-04-24T10:53:27;14.70;75.10
24802;DHT22;12898;50.520;12.152;2023-04-24T10:56:08;14.80;78.10
24802;DHT22;12898;50.520;12.152;2023-04-24T11:01:31;15.30;75.90
24802;DHT22;12898;50.520;12.152;2023-04-24T11:03:59;15.70;75.60
24802;DHT22;12898;50.520;12.152;2023-04-24T11:06:30;15.70;73.30
24802;DHT22;12898;50.520;12.152;2023-04-24T11:09:06;15.90;73.40
24802;DHT22;12898;50.520;12.152;2023-04-24T11:11:34;15.80;71.40
24802;DHT22;12898;50.520;12.152;2023-04-24T11:14:05;15.90;69.70
24802;DHT22;12898;50.520;12.152;2023-04-24T11:16:42;15.60;71.70
24802;DHT22;12898;50.520;12.152;2023-04-24T11:19:18;15.50;71.70
24802;DHT22;12898;50.520;12.152;2023-04-24T11:22:01;15.50;72.80
24802;DHT22;12898;50.520;12.152;2023-04-24T11:27:18;16.70;72.80
24802;DHT22;12898;50.520;12.152;2023-04-24T11:32:29;16.80;67.50
24802;DHT22;12898;50.520;12.152;2023-04-24T11:35:12;16.00;66.40
24802;DHT22;12898;50.520;12.152;2023-04-24T11:37:48;15.50;69.10
24802;DHT22;12898;50.520;12.152;2023-04-24T11:40:16;15.40;69.00
24802;DHT22;12898;50.520;12.152;2023-04-24T11:42:50;15.50;68.30
24802;DHT22;12898;50.520;12.152;2023-04-24T11:45:26;15.80;70.10
24802;DHT22;12898;50.520;12.152;2023-04-24T11:47:53;16.20;68.90
24802;DHT22;12898;50.520;12.152;2023-04-24T11:50:21;16.70;69.60
24802;DHT22;12898;50.520;12.152;2023-04-24T11:52:49;16.60;64.80
24802;DHT22;12898;50.520;12.152;2023-04-24T11:57:52;16.00;68.80
24802;DHT22;12898;50.520;12.152;2023-04-24T12:00:19;16.00;70.30
24802;DHT22;12898;50.520;12.152;2023-04-24T12:02:47;16.00;68.90
24802;DHT22;12898;50.520;12.152;2023-04-24T12:05:31;15.50;70.00
24802;DHT22;12898;50.520;12.152;2023-04-24T12:07:57;15.20;72.00
24802;DHT22;12898;50.520;12.152;2023-04-24T12:10:25;15.20;71.20
24802;DHT22;12898;50.520;12.152;2023-04-24T12:12:52;15.60;73.50
24802;DHT22;12898;50.520;12.152;2023-04-24T12:15:21;15.80;72.60
24802;DHT22;12898;50.520;12.152;2023-04-24T12:17:48;15.70;70.10
24802;DHT22;12898;50.520;12.152;2023-04-24T12:20:16;15.30;72.20
24802;DHT22;12898;50.520;12.152;2023-04-24T12:22:52;15.10;72.90
24802;DHT22;12898;50.520;12.152;2023-04-24T12:25:21;14.90;72.40
24802;DHT22;12898;50.520;12.152;2023-04-24T12:27:53;14.50;72.10
24802;DHT22;12898;50.520;12.152;2023-04-24T12:30:21;14.40;73.10
24802;DHT22;12898;50.520;12.152;2023-04-24T12:32:48;14.40;76.00
24802;DHT22;12898;50.520;12.152;2023-04-24T12:35:19;14.50;73.90
24802;DHT22;12898;50.520;12.152;2023-04-24T12:37:46;14.70;73.80
24802;DHT22;12898;50.520;12.152;2023-04-24T12:40:13;15.00;77.30
24802;DHT22;12898;50.520;12.152;2023-04-24T12:42:47;14.90;70.60
24802;DHT22;12898;50.520;12.152;2023-04-24T12:45:17;14.80;74.00
24802;DHT22;12898;50.520;12.152;2023-04-24T12:47:45;15.30;75.60
24802;DHT22;12898;50.520;12.152;2023-04-24T12:50:13;16.00;78.70
24802;DHT22;12898;50.520;12.152;2023-04-24T12:52:40;16.50;70.50
24802;DHT22;12898;50.520;12.152;2023-04-24T12:55:06;16.00;68.10
24802;DHT22;12898;50.520;12.152;2023-04-24T12:57:38;15.40;70.80
24802;DHT22;12898;50.520;12.152;2023-04-24T13:00:06;14.70;71.60
24802;DHT22;12898;50.520;12.152;2023-04-24T13:02:33;14.40;73.60
24802;DHT22;12898;50.520;12.152;2023-04-24T13:05:00;14.20;75.60
24802;DHT22;12898;50.520;12.152;2023-04-24T13:07:27;14.10;75.90
24802;DHT22;12898;50.520;12.152;2023-04-24T13:09:53;14.10;74.70
24802;DHT22;12898;50.520;12.152;2023-04-24T13:12:20;14.10;75.90
24802;DHT22;12898;50.520;12.152;2023-04-24T13:14:45;14.30;76.50
24802;DHT22;12898;50.520;12.152;2023-04-24T13:17:12;14.70;75.50
24802;DHT22;12898;50.520;12.152;2023-04-24T13:19:39;14.90;73.90
24802;DHT22;12898;50.520;12.152;2023-04-24T13:22:06;14.90;75.20
24802;DHT22;12898;50.520;12.152;2023-04-24T13:24:33;14.90;73.90
24802;DHT22;12898;50.520;12.152;2023-04-24T13:26:59;15.20;74.60
24802;DHT22;12898;50.520;12.152;2023-04-24T13:29:26;15.50;74.30
24802;DHT22;12898;50.520;12.152;2023-04-24T13:31:53;15.90;73.20
24802;DHT22;12898;50.520;12.152;2023-04-24T13:34:20;16.10;70.70
24802;DHT22;12898;50.520;12.152;2023-04-24T13:36:47;16.20;72.10
24802;DHT22;12898;50.520;12.152;2023-04-24T13:39:12;16.20;70.80
24802;DHT22;12898;50.520;12.152;2023-04-24T13:41:38;16.20;68.80
24802;DHT22;12898;50.520;12.152;2023-04-24T13:44:05;15.90;68.90
24802;DHT22;12898;50.520;12.152;2023-04-24T13:46:31;16.10;66.50
24802;DHT22;12898;50.520;12.152;2023-04-24T13:48:58;16.60;69.00
24802;DHT22;12898;50.520;12.152;2023-04-24T13:51:25;16.60;64.30
24802;DHT22;12898;50.520;12.152;2023-04-24T13:53:54;16.40;65.70
24802;DHT22;12898;50.520;12.152;2023-04-24T13:56:21;16.50;65.30
24802;DHT22;12898;50.520;12.152;2023-04-24T13:58:47;16.50;65.10
24802;DHT22;12898;50.520;12.152;2023-04-24T14:01:14;16.50;63.90
24802;DHT22;12898;50.520;12.152;2023-04-24T14:03:40;16.20;64.30
24802;DHT22;12898;50.520;12.152;2023-04-24T14:06:06;16.60;64.70
24802;DHT22;12898;50.520;12.152;2023-04-24T14:08:32;16.70;63.80
24802;DHT22;12898;50.520;12.152;2023-04-24T14:10:58;16.50;62.50
24802;DHT22;12898;50.520;12.152;2023-04-24T14:13:24;15.90;63.10
24802;DHT22;12898;50.520;12.152;2023-04-24T14:15:51;15.20;64.80
24802;DHT22;12898;50.520;12.152;2023-04-24T14:18:18;14.80;68.60
24802;DHT22;12898;50.520;12.152;2023-04-24T14:20:44;14.50;69.10
24802;DHT22;12898;50.520;12.152;2023-04-24T14:23:10;14.20;71.20
24802;DHT22;12898;50.520;12.152;2023-04-24T14:25:35;13.90;72.00
24802;DHT22;12898;50.520;12.152;2023-04-24T14:28:01;13.70;73.40
24802;DHT22;12898;50.520;12.152;2023-04-24T14:30:27;13.70;72.80
24802;DHT22;12898;50.520;12.152;2023-04-24T14:32:52;13.70;72.90
24802;DHT22;12898;50.520;12.152;2023-04-24T14:35:18;13.60;71.90
24802;DHT22;12898;50.520;12.152;2023-04-24T14:37:44;13.60;72.40
24802;DHT22;12898;50.520;12.152;2023-04-24T14:40:10;13.70;72.00
24802;DHT22;12898;50.520;12.152;2023-04-24T14:42:36;13.70;71.90
24802;DHT22;12898;50.520;12.152;2023-04-24T14:45:02;13.80;72.70
24802;DHT22;12898;50.520;12.152;2023-04-24T14:47:27;13.90;72.70
24802;DHT22;12898;50.520;12.152;2023-04-24T14:49:54;13.90;72.00
24802;DHT22;12898;50.520;12.152;2023-04-24T14:52:20;13.80;71.00
24802;DHT22;12898;50.520;12.152;2023-04-24T14:54:46;13.90;72.70
24802;DHT22;12898;50.520;12.152;2023-04-24T14:57:12;14.00;73.90
24802;DHT22;12898;50.520;12.152;2023-04-24T14:59:38;14.00;74.20
24802;DHT22;12898;50.520;12.152;2023-04-24T15:02:03;13.70;73.10
24802;DHT22;12898;50.520;12.152;2023-04-24T15:04:29;13.40;75.00
24802;DHT22;12898;50.520;12.152;2023-04-24T15:06:56;13.00;77.80
24802;DHT22;12898;50.520;12.152;2023-04-24T15:09:23;12.80;80.20
24802;DHT22;12898;50.520;12.152;2023-04-24T15:11:50;12.80;81.60
24802;DHT22;12898;50.520;12.152;2023-04-24T15:14:17;12.90;82.50
24802;DHT22;12898;50.520;12.152;2023-04-24T15:16:43;13.00;82.90
24802;DHT22;12898;50.520;12.152;2023-04-24T15:19:09;13.40;84.90
24802;DHT22;12898;50.520;12.152;2023-04-24T15:21:36;13.70;80.20
24802;DHT22;12898;50.520;12.152;2023-04-24T15:24:03;14.00;80.90
24802;DHT22;12898;50.520;12.152;2023-04-24T15:26:29;14.30;78.40
24802;DHT22;12898;50.520;12.152;2023-04-24T15:28:55;14.30;77.60